createdAt,value
2023-09-08T00:00:08.452Z,14.33
2023-09-08T00:02:35.612Z,14.80
2023-09-08T00:05:05.778Z,14.67
2023-09-08T00:07:35.899Z,15.60
2023-09-08T00:10:06.271Z,14.67
2023-09-08T00:12:34.354Z,14.97
2023-09-08T00:15:02.346Z,13.03
2023-09-08T00:17:29.479Z,14.30
2023-09-08T00:19:58.588Z,15.77
2023-09-08T00:22:27.803Z,15.60
2023-09-08T00:24:58.030Z,15.20
2023-09-08T00:27:25.055Z,16.23
2023-09-08T00:29:58.162Z,15.83
2023-09-08T00:32:28.362Z,16.63
2023-09-08T00:34:56.552Z,16.70
2023-09-08T00:37:23.771Z,15.47
2023-09-08T00:39:51.719Z,15.47
2023-09-08T00:42:18.922Z,14.67
2023-09-08T00:44:46.036Z,15.07
2023-09-08T00:47:14.417Z,18.17
2023-09-08T00:49:44.734Z,18.07
2023-09-08T00:52:12.024Z,16.37
2023-09-08T00:54:42.181Z,18.43
2023-09-08T00:57:10.785Z,17.40
2023-09-08T00:59:39.280Z,18.83
2023-09-08T01:02:06.800Z,19.13
2023-09-08T01:04:42.034Z,19.43
2023-09-08T01:07:10.904Z,18.67
2023-09-08T01:09:40.471Z,18.97
2023-09-08T01:12:13.742Z,18.70
2023-09-08T01:14:46.861Z,18.40
2023-09-08T01:17:17.001Z,19.17
2023-09-08T01:19:46.237Z,20.00
2023-09-08T01:22:15.265Z,21.33
2023-09-08T01:25:27.414Z,19.83
2023-09-08T01:27:59.889Z,20.97
2023-09-08T01:30:34.774Z,21.03
2023-09-08T01:33:04.281Z,20.57
2023-09-08T01:35:34.469Z,20.23
2023-09-08T01:38:01.555Z,22.27
2023-09-08T01:40:31.707Z,24.37
2023-09-08T01:43:02.302Z,23.70
2023-09-08T01:45:29.465Z,23.53
2023-09-08T01:47:57.582Z,23.60
2023-09-08T01:50:26.032Z,22.97
2023-09-08T01:52:53.317Z,23.10
2023-09-08T01:55:21.732Z,22.73
2023-09-08T01:57:48.893Z,22.63
2023-09-08T02:00:16.099Z,22.77
2023-09-08T02:02:45.301Z,22.43
2023-09-08T02:05:12.378Z,22.53
2023-09-08T02:07:42.732Z,22.70
2023-09-08T02:10:11.303Z,21.27
2023-09-08T02:12:38.402Z,20.60
2023-09-08T02:15:06.427Z,21.40
2023-09-08T02:17:33.562Z,21.87
2023-09-08T02:20:02.601Z,21.20
2023-09-08T02:22:30.903Z,21.07
2023-09-08T02:25:00.995Z,20.10
2023-09-08T02:27:29.120Z,20.57
2023-09-08T02:29:56.275Z,20.13
2023-09-08T02:32:26.451Z,20.50
2023-09-08T02:34:54.536Z,21.33
2023-09-08T02:37:22.586Z,21.90
2023-09-08T02:39:52.875Z,24.43
2023-09-08T02:42:19.939Z,22.50
2023-09-08T02:44:50.197Z,24.40
2023-09-08T02:47:20.239Z,25.40
2023-09-08T02:49:50.345Z,23.37
2023-09-08T02:52:20.988Z,23.60
2023-09-08T02:54:49.044Z,24.83
2023-09-08T02:57:18.118Z,25.67
2023-09-08T02:59:57.372Z,25.73
2023-09-08T03:02:28.478Z,24.60
2023-09-08T03:04:58.945Z,26.13
2023-09-08T03:07:29.041Z,24.70
2023-09-08T03:09:57.180Z,24.80
2023-09-08T03:12:24.243Z,24.50
2023-09-08T03:14:54.365Z,23.97
2023-09-08T03:17:24.451Z,22.73
2023-09-08T03:19:54.664Z,24.20
2023-09-08T03:22:26.045Z,21.53
2023-09-08T03:24:56.172Z,23.67
2023-09-08T03:27:24.292Z,22.63
2023-09-08T03:29:53.305Z,21.23
2023-09-08T03:32:21.402Z,22.63
2023-09-08T03:34:48.632Z,22.33
2023-09-08T03:37:16.770Z,21.17
2023-09-08T03:39:46.901Z,20.73
2023-09-08T03:42:17.085Z,20.10
2023-09-08T03:44:47.219Z,18.87
2023-09-08T03:47:17.406Z,20.03
2023-09-08T03:49:45.532Z,18.63
2023-09-08T03:52:13.568Z,19.70
2023-09-08T03:54:43.794Z,18.73
2023-09-08T03:57:12.948Z,19.90
2023-09-08T03:59:43.354Z,18.40
2023-09-08T04:02:11.502Z,19.83
2023-09-08T04:04:38.667Z,18.80
2023-09-08T04:07:05.621Z,20.70
2023-09-08T04:09:33.230Z,18.07
2023-09-08T04:12:03.424Z,19.80
2023-09-08T04:14:35.245Z,19.90
2023-09-08T04:17:02.449Z,21.27
2023-09-08T04:19:31.139Z,20.43
2023-09-08T04:22:00.288Z,19.60
2023-09-08T04:24:39.457Z,20.53
2023-09-08T04:27:11.545Z,20.43
2023-09-08T04:29:42.508Z,19.73
2023-09-08T04:32:12.596Z,19.83
2023-09-08T04:34:41.114Z,18.40
2023-09-08T04:37:11.408Z,19.20
2023-09-08T04:39:39.676Z,18.77
2023-09-08T04:42:08.008Z,19.67
2023-09-08T04:44:36.193Z,20.03
2023-09-08T04:47:03.373Z,19.50
2023-09-08T04:49:31.500Z,20.03
2023-09-08T04:51:59.536Z,19.90
2023-09-08T04:54:29.659Z,20.70
2023-09-08T04:57:11.709Z,21.67
2023-09-08T04:59:46.628Z,21.03
2023-09-08T05:02:16.823Z,19.30
2023-09-08T05:04:46.996Z,18.90
2023-09-08T05:07:17.237Z,19.27
2023-09-08T05:09:47.466Z,20.40
2023-09-08T05:12:14.526Z,19.73
2023-09-08T05:14:42.483Z,19.70
2023-09-08T05:17:09.663Z,19.83
2023-09-08T05:19:37.696Z,19.87
2023-09-08T05:22:08.333Z,20.87
2023-09-08T05:24:35.382Z,20.63
2023-09-08T05:27:03.761Z,20.07
2023-09-08T05:29:30.812Z,17.63
2023-09-08T05:32:00.916Z,20.00
2023-09-08T05:34:31.123Z,20.20
2023-09-08T05:36:59.250Z,18.60
2023-09-08T05:39:27.391Z,18.87
2023-09-08T05:42:00.696Z,19.23
2023-09-08T05:44:28.772Z,19.13
2023-09-08T05:46:59.144Z,19.60
2023-09-08T05:49:26.316Z,20.47
2023-09-08T05:51:53.695Z,21.37
2023-09-08T05:54:23.702Z,20.03
2023-09-08T05:56:53.900Z,20.17
2023-09-08T05:59:22.986Z,19.57
2023-09-08T06:01:50.013Z,18.90
2023-09-08T06:04:17.381Z,18.83
2023-09-08T06:06:44.473Z,17.37
2023-09-08T06:09:16.260Z,19.63
2023-09-08T06:11:57.425Z,18.03
2023-09-08T06:14:24.768Z,18.83
2023-09-08T06:16:51.981Z,18.70
2023-09-08T06:19:19.222Z,19.73
2023-09-08T06:21:46.482Z,19.10
2023-09-08T06:24:13.658Z,18.40
2023-09-08T06:26:44.041Z,18.33
2023-09-08T06:29:14.216Z,18.43
2023-09-08T06:31:44.438Z,18.30
2023-09-08T06:34:12.652Z,16.43
2023-09-08T06:36:43.466Z,19.90
2023-09-08T06:39:10.525Z,19.93
2023-09-08T06:41:39.628Z,21.87
2023-09-08T06:44:07.070Z,18.27
2023-09-08T06:46:37.263Z,19.00
2023-09-08T06:49:07.398Z,19.87
2023-09-08T06:51:36.605Z,17.47
2023-09-08T06:54:07.166Z,17.43
2023-09-08T06:56:36.784Z,17.70
2023-09-08T06:59:03.959Z,17.93
2023-09-08T07:01:34.169Z,18.23
2023-09-08T07:04:02.557Z,17.63
2023-09-08T07:06:29.752Z,19.75
2023-09-08T07:08:58.347Z,17.95
2023-09-08T07:11:28.593Z,17.30
2023-09-08T07:13:58.016Z,15.98
2023-09-08T07:16:28.229Z,17.55
2023-09-08T07:18:58.523Z,15.32
2023-09-08T07:21:25.517Z,14.43
2023-09-08T07:23:55.054Z,15.25
2023-09-08T07:26:25.231Z,14.15
2023-09-08T07:28:52.437Z,16.60
2023-09-08T07:31:21.661Z,16.50
2023-09-08T07:33:48.986Z,17.00
2023-09-08T07:36:18.128Z,16.15
2023-09-08T07:38:48.162Z,15.65
2023-09-08T07:41:16.136Z,15.75
2023-09-08T07:43:46.978Z,16.85
2023-09-08T07:46:15.359Z,15.30
2023-09-08T07:48:42.550Z,15.70
2023-09-08T07:51:09.563Z,16.67
2023-09-08T07:53:37.836Z,13.80
2023-09-08T07:56:05.685Z,14.85
2023-09-08T07:58:35.331Z,15.63
2023-09-08T08:01:03.696Z,15.40
2023-09-08T08:03:36.067Z,14.27
2023-09-08T08:06:03.834Z,15.80
2023-09-08T08:08:34.630Z,13.55
2023-09-08T08:11:16.520Z,13.88
2023-09-08T08:13:43.564Z,14.63
2023-09-08T08:16:13.912Z,13.32
2023-09-08T08:18:44.495Z,13.65
2023-09-08T08:21:11.552Z,12.73
2023-09-08T08:23:42.123Z,14.63
2023-09-08T08:26:17.429Z,13.65
2023-09-08T08:28:45.585Z,13.55
2023-09-08T08:31:14.773Z,12.25
2023-09-08T08:33:41.912Z,13.68
2023-09-08T08:36:12.142Z,13.73
2023-09-08T08:38:42.425Z,13.80
2023-09-08T08:41:09.465Z,13.45
2023-09-08T08:43:36.667Z,12.52
2023-09-08T08:46:05.770Z,12.98
2023-09-08T08:48:37.189Z,12.52
2023-09-08T08:51:09.667Z,15.05
2023-09-08T08:53:38.109Z,12.95
2023-09-08T08:56:09.797Z,14.70
2023-09-08T08:58:41.429Z,14.05
2023-09-08T09:01:16.867Z,14.02
2023-09-08T09:03:50.944Z,13.75
2023-09-08T09:06:18.893Z,12.27
2023-09-08T09:08:46.750Z,13.85
2023-09-08T09:11:16.857Z,14.65
2023-09-08T09:13:44.914Z,12.60
2023-09-08T09:16:15.002Z,14.25
2023-09-08T09:19:01.601Z,12.80
2023-09-08T09:21:52.376Z,13.23
2023-09-08T09:24:45.043Z,14.07
2023-09-08T09:27:14.698Z,12.80
2023-09-08T09:29:49.620Z,12.25
2023-09-08T09:32:18.201Z,11.90
2023-09-08T09:34:55.800Z,14.05
2023-09-08T09:37:26.135Z,13.68
2023-09-08T09:39:56.628Z,15.82
2023-09-08T09:42:24.276Z,15.43
2023-09-08T09:44:58.342Z,16.15
2023-09-08T09:47:28.278Z,17.40
2023-09-08T09:49:59.438Z,20.65
2023-09-08T09:52:31.481Z,18.75
2023-09-08T09:55:00.483Z,22.10
2023-09-08T09:57:28.320Z,20.13
2023-09-08T09:59:57.663Z,20.63
2023-09-08T10:02:26.452Z,19.70
2023-09-08T10:04:54.952Z,19.33
2023-09-08T10:07:23.560Z,21.92
2023-09-08T10:09:50.794Z,25.48
2023-09-08T10:12:20.511Z,24.13
2023-09-08T10:14:51.807Z,32.67
2023-09-08T10:17:26.263Z,32.38
2023-09-08T10:19:55.188Z,30.70
2023-09-08T10:22:27.580Z,30.33
2023-09-08T10:24:56.785Z,35.25
2023-09-08T10:27:25.239Z,28.13
2023-09-08T10:29:54.323Z,39.13
2023-09-08T10:32:22.915Z,30.17
2023-09-08T10:34:50.840Z,31.08
2023-09-08T10:37:25.530Z,30.52
2023-09-08T10:39:55.340Z,26.70
2023-09-08T10:42:28.774Z,33.15
2023-09-08T10:45:19.763Z,37.03
2023-09-08T10:47:48.900Z,35.03
2023-09-08T10:50:28.805Z,33.83
2023-09-08T10:53:15.989Z,27.20
2023-09-08T10:56:10.837Z,28.67
2023-09-08T10:58:44.845Z,28.20
2023-09-08T11:01:18.423Z,27.75
2023-09-08T11:03:48.977Z,29.35
2023-09-08T11:06:31.481Z,29.00
2023-09-08T11:09:08.746Z,29.70
2023-09-08T11:11:39.842Z,27.42
2023-09-08T11:14:06.787Z,23.60
2023-09-08T11:16:37.001Z,27.15
2023-09-08T11:19:06.098Z,23.63
2023-09-08T11:21:38.043Z,27.02
2023-09-08T11:24:07.475Z,24.98
2023-09-08T11:26:38.726Z,27.65
2023-09-08T11:29:06.959Z,25.55
2023-09-08T11:31:35.963Z,26.27
2023-09-08T11:34:06.568Z,26.83
2023-09-08T11:36:33.807Z,24.98
2023-09-08T11:39:01.189Z,28.38
2023-09-08T11:41:29.599Z,21.83
2023-09-08T11:43:59.344Z,31.10
2023-09-08T11:46:29.615Z,25.63
2023-09-08T11:49:05.425Z,29.65
2023-09-08T11:51:33.683Z,31.88
2023-09-08T11:54:04.040Z,24.95
2023-09-08T11:56:34.378Z,27.25
2023-09-08T11:59:05.071Z,23.02
2023-09-08T12:01:35.313Z,20.55
2023-09-08T12:04:05.554Z,31.42
2023-09-08T12:06:35.705Z,30.20
2023-09-08T12:09:05.781Z,31.90
2023-09-08T12:11:38.441Z,33.63
2023-09-08T12:14:13.101Z,22.83
2023-09-08T12:16:43.654Z,33.42
2023-09-08T12:19:32.436Z,28.50
2023-09-08T12:22:04.366Z,27.63
2023-09-08T12:24:58.110Z,31.33
2023-09-08T12:27:28.744Z,26.92
2023-09-08T12:30:05.501Z,23.00
2023-09-08T12:32:34.317Z,32.60
2023-09-08T12:35:04.807Z,23.25
2023-09-08T12:37:35.249Z,34.67
2023-09-08T12:40:06.081Z,28.73
2023-09-08T12:42:35.812Z,22.77
2023-09-08T12:45:12.741Z,23.98
2023-09-08T12:47:44.369Z,23.70
2023-09-08T12:50:14.551Z,21.35
2023-09-08T12:52:43.678Z,28.90
2023-09-08T12:55:10.956Z,23.60
2023-09-08T12:57:39.103Z,24.75
2023-09-08T13:00:07.076Z,21.92
2023-09-08T13:02:34.940Z,26.13
2023-09-08T13:05:02.884Z,22.75
2023-09-08T13:07:55.948Z,20.98
2023-09-08T13:10:26.564Z,22.20
2023-09-08T13:12:53.841Z,21.65
2023-09-08T13:15:20.891Z,22.27
2023-09-08T13:17:47.945Z,26.63
2023-09-08T13:20:18.461Z,22.92
2023-09-08T13:22:48.971Z,21.73
2023-09-08T13:25:18.240Z,23.83
2023-09-08T13:27:49.141Z,19.77
2023-09-08T13:30:17.406Z,28.08
2023-09-08T13:32:47.762Z,19.63
2023-09-08T13:35:18.360Z,21.80
2023-09-08T13:37:46.450Z,27.23
2023-09-08T13:40:16.736Z,25.73
2023-09-08T13:42:46.126Z,22.15
2023-09-08T13:45:13.365Z,28.98
2023-09-08T13:47:43.824Z,23.88
2023-09-08T13:50:14.708Z,21.02
2023-09-08T13:52:47.676Z,22.10
2023-09-08T13:55:35.598Z,26.58
2023-09-08T13:58:09.423Z,21.85
2023-09-08T14:00:44.968Z,19.55
2023-09-08T14:03:14.775Z,20.67
2023-09-08T14:05:47.405Z,17.92
2023-09-08T14:08:28.494Z,18.40
2023-09-08T14:13:29.662Z,17.23
2023-09-08T14:15:56.771Z,16.23
2023-09-08T14:18:31.975Z,16.40
2023-09-08T14:21:02.208Z,20.35
2023-09-08T14:23:30.329Z,18.25
2023-09-08T14:26:00.824Z,15.80
2023-09-08T14:28:33.291Z,18.73
2023-09-08T14:31:02.560Z,16.75
2023-09-08T14:33:32.790Z,20.80
2023-09-08T14:36:01.863Z,15.43
2023-09-08T14:38:30.948Z,15.20
2023-09-08T14:41:02.963Z,15.50
2023-09-08T14:43:33.352Z,19.45
2023-09-08T14:46:05.967Z,18.33
2023-09-08T14:48:33.448Z,14.30
2023-09-08T14:51:03.148Z,14.93
2023-09-08T14:53:32.933Z,14.93
2023-09-08T14:56:13.358Z,13.48
2023-09-08T14:58:43.619Z,15.27
2023-09-08T15:01:15.156Z,14.38
2023-09-08T15:03:45.427Z,14.02
2023-09-08T15:06:14.708Z,17.15
2023-09-08T15:08:44.056Z,15.55
2023-09-08T15:11:11.032Z,21.25
2023-09-08T15:13:38.463Z,14.68
2023-09-08T15:16:05.779Z,14.05
2023-09-08T15:18:32.863Z,15.43
2023-09-08T15:21:00.031Z,15.43
2023-09-08T15:23:28.114Z,12.82
2023-09-08T15:25:58.762Z,16.60
2023-09-08T15:28:28.942Z,12.32
2023-09-08T15:31:02.799Z,13.63
2023-09-08T15:33:31.062Z,12.27
2023-09-08T15:35:58.829Z,14.82
2023-09-08T15:38:27.965Z,12.70
2023-09-08T15:41:13.766Z,15.52
2023-09-08T15:43:49.794Z,17.42
2023-09-08T15:46:17.072Z,19.38
2023-09-08T15:48:44.268Z,16.65
2023-09-08T15:51:12.584Z,14.13
2023-09-08T15:53:42.226Z,14.98
2023-09-08T15:56:13.222Z,17.20
2023-09-08T15:58:40.733Z,10.88
2023-09-08T16:01:09.145Z,10.98
2023-09-08T16:03:39.469Z,11.98
2023-09-08T16:06:06.922Z,12.55
2023-09-08T16:08:33.928Z,15.88
2023-09-08T16:11:13.570Z,14.55
2023-09-08T16:13:40.909Z,14.02
2023-09-08T16:16:11.030Z,14.55
2023-09-08T16:18:38.126Z,13.02
2023-09-08T16:21:18.423Z,15.50
2023-09-08T16:23:45.732Z,12.43
2023-09-08T16:26:14.975Z,13.43
2023-09-08T16:28:44.226Z,12.77
2023-09-08T16:31:19.589Z,13.23
2023-09-08T16:33:47.793Z,15.55
2023-09-08T16:36:17.870Z,12.98
2023-09-08T16:38:48.152Z,12.68
2023-09-08T16:41:17.309Z,17.58
2023-09-08T16:43:47.515Z,12.65
2023-09-08T16:46:16.525Z,11.52
2023-09-08T16:48:45.622Z,13.20
2023-09-08T16:51:12.735Z,12.60
2023-09-08T16:53:42.914Z,14.65
2023-09-08T16:56:12.029Z,13.20
2023-09-08T16:58:42.074Z,14.93
2023-09-08T17:01:10.180Z,15.07
2023-09-08T17:03:37.708Z,15.43
2023-09-08T17:06:08.287Z,14.63
2023-09-08T17:08:37.385Z,18.35
2023-09-08T17:11:08.344Z,18.50
2023-09-08T17:13:36.598Z,16.63
2023-09-08T17:16:06.939Z,17.55
2023-09-08T17:18:37.305Z,14.90
2023-09-08T17:21:05.505Z,16.08
2023-09-08T17:23:32.657Z,14.00
2023-09-08T17:26:02.797Z,14.55
2023-09-08T17:28:35.672Z,16.77
2023-09-08T17:31:06.959Z,15.82
2023-09-08T17:33:37.284Z,16.67
2023-09-08T17:36:06.644Z,16.30
2023-09-08T17:38:37.547Z,16.67
2023-09-08T17:41:05.722Z,16.13
2023-09-08T17:43:32.950Z,15.88
2023-09-08T17:46:04.900Z,14.75
2023-09-08T17:48:34.246Z,16.90
2023-09-08T17:51:04.639Z,18.25
2023-09-08T17:53:36.976Z,16.45
2023-09-08T17:56:04.550Z,16.35
2023-09-08T17:58:34.962Z,16.55
2023-09-08T18:01:02.128Z,15.52
2023-09-08T18:03:32.548Z,16.75
2023-09-08T18:06:00.694Z,16.65
2023-09-08T18:08:28.716Z,20.52
2023-09-08T18:11:04.183Z,21.48
2023-09-08T18:13:31.752Z,17.95
2023-09-08T18:16:04.551Z,22.90
2023-09-08T18:18:34.198Z,21.63
2023-09-08T18:21:04.241Z,24.95
2023-09-08T18:23:31.843Z,22.42
2023-09-08T18:26:00.931Z,16.35
2023-09-08T18:28:31.540Z,16.17
2023-09-08T18:31:01.772Z,16.88
2023-09-08T18:33:30.929Z,18.95
2023-09-08T18:35:58.377Z,16.02
2023-09-08T18:38:26.945Z,17.58
2023-09-08T18:40:55.191Z,17.77
2023-09-08T18:43:26.070Z,17.75
2023-09-08T18:45:53.079Z,19.02
2023-09-08T18:48:20.211Z,20.20
2023-09-08T18:50:50.459Z,19.88
2023-09-08T18:53:17.548Z,20.95
2023-09-08T18:55:44.663Z,20.60
2023-09-08T18:58:11.865Z,21.30
2023-09-08T19:00:46.655Z,19.40
2023-09-08T19:03:13.998Z,19.40
2023-09-08T19:05:44.381Z,21.75
2023-09-08T19:08:14.594Z,20.77
2023-09-08T19:10:42.938Z,22.00
2023-09-08T19:13:11.183Z,23.23
2023-09-08T19:15:41.288Z,21.30
2023-09-08T19:18:10.463Z,22.23
2023-09-08T19:20:39.699Z,21.10
2023-09-08T19:23:11.185Z,22.75
2023-09-08T19:25:45.021Z,20.98
2023-09-08T19:28:13.196Z,22.67
2023-09-08T19:30:47.459Z,20.50
2023-09-08T19:33:14.882Z,21.27
2023-09-08T19:35:45.052Z,21.02
2023-09-08T19:38:12.320Z,22.83
2023-09-08T19:40:45.349Z,21.77
2023-09-08T19:43:14.497Z,23.30
2023-09-08T19:45:44.769Z,22.48
2023-09-08T19:48:14.969Z,24.92
2023-09-08T19:50:45.538Z,24.45
2023-09-08T19:53:12.630Z,27.50
2023-09-08T19:55:42.704Z,22.50
2023-09-08T19:58:12.982Z,24.08
2023-09-08T20:00:46.212Z,24.38
2023-09-08T20:03:17.602Z,26.50
2023-09-08T20:05:45.859Z,30.25
2023-09-08T20:08:15.122Z,34.17
2023-09-08T20:10:51.545Z,38.38
2023-09-08T20:13:20.182Z,41.10
2023-09-08T20:16:19.441Z,38.72
2023-09-08T20:18:48.814Z,36.10
2023-09-08T20:21:18.915Z,33.25
2023-09-08T20:23:49.103Z,32.47
2023-09-08T20:26:18.211Z,35.55
2023-09-08T20:28:50.084Z,38.70
2023-09-08T20:31:20.749Z,39.65
2023-09-08T20:33:48.856Z,46.67
2023-09-08T20:36:18.293Z,41.75
2023-09-08T20:38:47.559Z,52.00
2023-09-08T20:41:15.715Z,59.03
2023-09-08T20:43:46.452Z,57.08
2023-09-08T20:46:16.558Z,55.60
2023-09-08T20:48:43.720Z,63.03
2023-09-08T20:51:18.974Z,57.50
2023-09-08T20:53:47.296Z,54.80
2023-09-08T20:56:14.377Z,57.90
2023-09-08T20:58:43.844Z,60.38
2023-09-08T21:01:13.187Z,56.80
2023-09-08T21:03:43.435Z,50.17
2023-09-08T21:06:13.900Z,56.40
2023-09-08T21:08:44.027Z,60.07
2023-09-08T21:11:14.490Z,53.50
2023-09-08T21:13:42.927Z,50.47
2023-09-08T21:16:09.982Z,55.30
2023-09-08T21:18:40.085Z,53.13
2023-09-08T21:21:09.133Z,54.37
2023-09-08T21:23:40.978Z,57.33
2023-09-08T21:26:11.099Z,62.53
2023-09-08T21:28:40.730Z,63.20
2023-09-08T21:31:09.746Z,60.50
2023-09-08T21:33:40.323Z,59.23
2023-09-08T21:36:08.530Z,55.43
2023-09-08T21:38:35.874Z,59.27
2023-09-08T21:41:18.346Z,57.53
2023-09-08T21:43:48.569Z,57.77
2023-09-08T21:46:17.644Z,57.83
2023-09-08T21:48:46.814Z,62.53
2023-09-08T21:51:17.130Z,63.20
2023-09-08T21:53:50.241Z,62.03
2023-09-08T21:56:17.687Z,62.23
2023-09-08T21:58:47.791Z,62.67
2023-09-08T22:01:16.413Z,60.80
2023-09-08T22:03:46.039Z,74.73
2023-09-08T22:06:13.608Z,70.83
2023-09-08T22:08:41.733Z,71.10
2023-09-08T22:11:09.727Z,65.47
2023-09-08T22:13:40.235Z,82.10
2023-09-08T22:16:10.595Z,76.27
2023-09-08T22:18:40.861Z,74.10
2023-09-08T22:21:10.931Z,75.23
2023-09-08T22:23:38.083Z,78.10
2023-09-08T22:26:14.955Z,70.47
2023-09-08T22:28:48.092Z,73.13
2023-09-08T22:31:21.902Z,84.30
2023-09-08T22:33:52.364Z,78.77
2023-09-08T22:36:21.218Z,73.07
2023-09-08T22:38:55.304Z,76.03
2023-09-08T22:41:23.748Z,81.07
2023-09-08T22:43:50.866Z,82.97
2023-09-08T22:46:21.562Z,89.00
2023-09-08T22:48:50.697Z,94.20
2023-09-08T22:51:17.850Z,90.90
2023-09-08T22:53:44.825Z,96.30
2023-09-08T22:56:15.018Z,91.93
2023-09-08T22:58:45.222Z,103.13
2023-09-08T23:01:12.462Z,100.67
2023-09-08T23:03:40.964Z,91.43
2023-09-08T23:06:14.921Z,81.30
2023-09-08T23:08:45.211Z,77.30
2023-09-08T23:11:15.441Z,75.50
2023-09-08T23:13:42.536Z,78.63
2023-09-08T23:16:14.093Z,74.07
2023-09-08T23:18:42.421Z,73.00
2023-09-08T23:21:12.747Z,80.03
2023-09-08T23:23:40.022Z,83.40
2023-09-08T23:26:07.274Z,87.70
2023-09-08T23:28:37.415Z,70.40
2023-09-08T23:31:06.484Z,76.57
2023-09-08T23:33:33.591Z,88.00
2023-09-08T23:36:00.761Z,93.60
2023-09-08T23:38:30.936Z,87.27
2023-09-08T23:41:01.061Z,82.50
2023-09-08T23:43:31.465Z,85.07
2023-09-08T23:46:00.944Z,73.97
2023-09-08T23:48:31.246Z,80.60
2023-09-08T23:51:02.198Z,76.73
2023-09-08T23:53:30.321Z,87.53
2023-09-08T23:56:01.831Z,86.70
2023-09-08T23:58:34.990Z,83.67
